Time;durP1;ratioP1;P1;durP2;ratioP2;P2;SDS_P1;SDS_P2;PMS_P1;PMS_P2;Temp;Humidity;BMP_temperature;BMP_pressure;BME280_temperature;BME280_humidity;BME280_pressure;Samples;Min_cycle;Max_cycle;Signal;HPM_P1;HPM_P2
2022/02/09 00:00:26;;;;;;;;;;;10.10;99.90;;;;;;5090979;28;19912;-74
2022/02/09 00:03:09;;;;;;;;;;;10.10;99.90;;;;;;5090861;28;19916;-74
2022/02/09 00:05:58;;;;;;;;;;;10.20;99.90;;;;;;5089855;28;19923;-74
2022/02/09 00:08:24;;;;;;;;;;;10.10;99.90;;;;;;5090841;28;19912;-74
2022/02/09 00:10:57;;;;;;;;;;;10.10;99.90;;;;;;5090746;28;19919;-74
2022/02/09 00:21:24;;;;;;;;;;;10.00;99.90;;;;;;5090451;28;19912;-74
2022/02/09 00:34:49;;;;;;;;;;;10.10;99.90;;;;;;5090429;28;19912;-74
2022/02/09 01:57:33;;;;;;;;;;;9.80;99.90;;;;;;5089102;28;19973;-74
2022/02/09 02:00:00;;;;;;;;;;;9.80;99.90;;;;;;5088678;28;19916;-74
2022/02/09 02:02:25;;;;;;;;;;;9.80;99.90;;;;;;5088656;28;19908;-74
2022/02/09 02:04:51;;;;;;;;;;;9.70;99.90;;;;;;5088664;28;19923;-74
2022/02/09 02:07:37;;;;;;;;;;;9.80;99.90;;;;;;5088510;28;19946;-74
2022/02/09 02:10:07;;;;;;;;;;;9.70;99.90;;;;;;5088554;28;19912;-74
2022/02/09 02:12:48;;;;;;;;;;;9.70;99.90;;;;;;5088509;28;19960;-74
2022/02/09 02:15:44;;;;;;;;;;;9.70;99.90;;;;;;5088598;28;19915;-74
2022/02/09 02:18:03;;;;;;;;;;;9.70;99.90;;;;;;5088366;28;19919;-74
2022/02/09 02:20:39;;;;;;;;;;;9.70;99.90;;;;;;5088354;28;20294;-74
2022/02/09 02:57:21;;;;;;;;;;;9.80;99.90;;;;;;5087983;28;19919;-74
2022/02/09 03:13:22;;;;;;;;;;;9.40;99.90;;;;;;5086768;28;19977;-74
2022/02/09 03:15:54;;;;;;;;;;;9.30;99.90;;;;;;5086571;28;19917;-74
2022/02/09 03:21:01;;;;;;;;;;;9.10;99.90;;;;;;5087898;28;19951;-74
2022/02/09 03:45:35;;;;;;;;;;;8.80;99.90;;;;;;5087705;28;19915;-74
2022/02/09 03:53:16;;;;;;;;;;;8.90;99.90;;;;;;5087799;28;19919;-75
2022/02/09 03:55:58;;;;;;;;;;;9.00;99.90;;;;;;5087498;28;19915;-74
2022/02/09 03:58:23;;;;;;;;;;;9.00;99.90;;;;;;5087487;28;19995;-74
2022/02/09 04:00:49;;;;;;;;;;;9.00;99.90;;;;;;5087566;28;20015;-74
2022/02/09 04:03:19;;;;;;;;;;;9.00;99.90;;;;;;5089075;28;19966;-75
2022/02/09 04:05:47;;;;;;;;;;;9.10;99.90;;;;;;5090955;28;19919;-75
2022/02/09 04:08:15;;;;;;;;;;;9.10;99.90;;;;;;5089469;28;19908;-75
2022/02/09 04:10:47;;;;;;;;;;;9.10;99.90;;;;;;5090799;28;20003;-74
2022/02/09 04:37:23;;;;;;;;;;;8.60;99.90;;;;;;5089535;28;19919;-75
2022/02/09 04:39:54;;;;;;;;;;;8.60;99.90;;;;;;5090405;28;19912;-75
2022/02/09 04:45:35;;;;;;;;;;;8.50;99.90;;;;;;5090668;28;19965;-75
2022/02/09 04:50:54;;;;;;;;;;;8.40;99.90;;;;;;5090342;28;19919;-75
2022/02/09 04:56:12;;;;;;;;;;;8.50;99.90;;;;;;5089976;28;19935;-75
2022/02/09 04:59:01;;;;;;;;;;;8.50;99.90;;;;;;5088343;28;19919;-75
2022/02/09 05:23:04;;;;;;;;;;;8.30;99.90;;;;;;5089598;28;20374;-75
2022/02/09 05:28:05;;;;;;;;;;;8.20;99.90;;;;;;5089234;28;19939;-75
2022/02/09 05:30:31;;;;;;;;;;;8.20;99.90;;;;;;5089079;28;19920;-75
2022/02/09 05:32:56;;;;;;;;;;;8.20;99.90;;;;;;5089333;28;20366;-75
2022/02/09 05:35:22;;;;;;;;;;;8.10;99.90;;;;;;5089219;28;19908;-75
2022/02/09 05:37:49;;;;;;;;;;;8.00;99.90;;;;;;5089127;28;19920;-75
2022/02/09 05:40:14;;;;;;;;;;;8.00;99.90;;;;;;5089000;28;19952;-74
2022/02/09 05:42:40;;;;;;;;;;;8.00;99.90;;;;;;5089149;28;20001;-75
2022/02/09 05:45:09;;;;;;;;;;;7.90;99.90;;;;;;5089314;28;19912;-75
2022/02/09 05:50:29;;;;;;;;;;;7.80;99.90;;;;;;5089244;28;19923;-75
2022/02/09 05:55:44;;;;;;;;;;;7.70;99.90;;;;;;5088964;28;19959;-75
2022/02/09 06:00:47;;;;;;;;;;;7.60;99.90;;;;;;5088753;28;19919;-75
2022/02/09 06:03:13;;;;;;;;;;;7.60;99.90;;;;;;5088638;28;20295;-74
2022/02/09 06:05:39;;;;;;;;;;;7.50;99.90;;;;;;5088616;28;19908;-74
2022/02/09 06:08:05;;;;;;;;;;;7.50;99.90;;;;;;5088549;28;19944;-75
2022/02/09 06:10:32;;;;;;;;;;;7.50;99.90;;;;;;5087282;28;20370;-75
2022/02/09 06:21:00;;;;;;;;;;;7.40;99.90;;;;;;5089029;28;19919;-74
2022/02/09 06:23:26;;;;;;;;;;;7.30;99.90;;;;;;5088447;28;20377;-74
2022/02/09 06:25:52;;;;;;;;;;;7.30;99.90;;;;;;5087561;28;19916;-75
2022/02/09 06:28:17;;;;;;;;;;;7.30;99.90;;;;;;5086929;28;20308;-74
2022/02/09 06:30:43;;;;;;;;;;;7.20;99.90;;;;;;5087793;28;19926;-74
2022/02/09 06:33:08;;;;;;;;;;;7.20;99.90;;;;;;5086845;28;19969;-73
2022/02/09 06:35:34;;;;;;;;;;;7.20;99.90;;;;;;5088300;28;20285;-74
2022/02/09 06:38:01;;;;;;;;;;;7.20;99.90;;;;;;5086818;28;19970;-74
2022/02/09 06:40:27;;;;;;;;;;;7.10;99.90;;;;;;5087879;28;20308;-75
2022/02/09 06:42:52;;;;;;;;;;;7.10;99.90;;;;;;5088087;28;20342;-73
2022/02/09 06:45:22;;;;;;;;;;;7.10;99.90;;;;;;5088108;28;19990;-74
2022/02/09 06:47:48;;;;;;;;;;;7.10;99.90;;;;;;5087838;28;19916;-75
2022/02/09 06:50:22;;;;;;;;;;;7.00;99.90;;;;;;5087824;28;19917;-75
2022/02/09 06:52:59;;;;;;;;;;;7.00;99.90;;;;;;5086737;28;20014;-75
2022/02/09 06:55:24;;;;;;;;;;;7.00;99.90;;;;;;5087914;28;20011;-74
2022/02/09 07:00:16;;;;;;;;;;;7.00;99.90;;;;;;5087965;28;20366;-75
2022/02/09 07:02:43;;;;;;;;;;;6.90;99.90;;;;;;5087810;28;19917;-74
2022/02/09 07:05:09;;;;;;;;;;;6.90;99.90;;;;;;5087805;28;19912;-75
2022/02/09 07:07:35;;;;;;;;;;;6.90;99.90;;;;;;5087402;28;19991;-75
2022/02/09 07:10:00;;;;;;;;;;;6.90;99.90;;;;;;5090434;28;20289;-74
2022/02/09 07:12:26;;;;;;;;;;;6.90;99.90;;;;;;5089627;28;20247;-74
2022/02/09 07:14:53;;;;;;;;;;;6.90;99.90;;;;;;5087512;28;19931;-74
2022/02/09 07:17:19;;;;;;;;;;;6.90;99.90;;;;;;5085962;28;19930;-74
2022/02/09 07:19:52;;;;;;;;;;;6.80;99.90;;;;;;5085691;28;20251;-75
2022/02/09 07:22:24;;;;;;;;;;;6.80;99.90;;;;;;5085661;28;19914;-75
2022/02/09 07:24:51;;;;;;;;;;;6.80;99.90;;;;;;5087464;28;19965;-75
2022/02/09 07:27:38;;;;;;;;;;;6.80;99.90;;;;;;5087267;28;19920;-75
2022/02/09 07:30:04;;;;;;;;;;;6.80;99.90;;;;;;5086811;28;19924;-75
2022/02/09 07:32:30;;;;;;;;;;;6.70;99.90;;;;;;5088171;28;19920;-75
2022/02/09 07:34:55;;;;;;;;;;;6.70;99.90;;;;;;5087558;28;20389;-75
2022/02/09 07:37:21;;;;;;;;;;;6.70;99.90;;;;;;5090579;28;19912;-75
2022/02/09 07:39:47;;;;;;;;;;;6.70;99.90;;;;;;5091188;28;19949;-75
2022/02/09 07:42:20;;;;;;;;;;;6.60;99.90;;;;;;5091138;28;19919;-75
2022/02/09 07:45:20;;;;;;;;;;;6.60;99.90;;;;;;5091200;28;19908;-73
2022/02/09 07:53:05;;;;;;;;;;;6.60;99.90;;;;;;5091093;28;20285;-73
2022/02/09 07:55:31;;;;;;;;;;;6.50;99.90;;;;;;5074119;28;20457;-74
2022/02/09 07:57:57;;;;;;;;;;;6.60;99.90;;;;;;5090717;28;19919;-74
2022/02/09 08:00:22;;;;;;;;;;;6.50;99.90;;;;;;5090329;28;20326;-74
2022/02/09 08:02:52;;;;;;;;;;;6.50;99.90;;;;;;5090293;28;20320;-75
2022/02/09 08:05:17;;;;;;;;;;;6.50;99.90;;;;;;5089279;28;20022;-75
2022/02/09 08:07:43;;;;;;;;;;;6.50;99.90;;;;;;5090740;28;20231;-74
2022/02/09 08:10:16;;;;;;;;;;;6.50;99.90;;;;;;5090634;28;19939;-74
2022/02/09 08:24:04;;;;;;;;;;;6.60;99.90;;;;;;5074585;28;19958;-75
2022/02/09 08:29:16;;;;;;;;;;;6.80;99.90;;;;;;5089917;28;20263;-75
2022/02/09 08:32:49;;;;;;;;;;;6.90;99.90;;;;;;5089283;28;19927;-74
2022/02/09 08:34:39;;;;;;;;;;;7.00;99.90;;;;;;5080335;28;20003;-75
2022/02/09 08:37:05;;;;;;;;;;;7.20;99.90;;;;;;5087883;28;19919;-74
2022/02/09 08:39:31;;;;;;;;;;;7.30;99.90;;;;;;5089418;28;20418;-74
2022/02/09 08:41:57;;;;;;;;;;;7.30;99.90;;;;;;5089169;28;19922;-74
2022/02/09 08:44:24;;;;;;;;;;;7.40;99.90;;;;;;5088946;28;19923;-74
2022/02/09 08:46:49;;;;;;;;;;;7.40;99.90;;;;;;5087680;28;20310;-74
2022/02/09 08:49:15;;;;;;;;;;;7.40;99.90;;;;;;5088728;28;19922;-74
2022/02/09 08:51:43;;;;;;;;;;;7.40;99.90;;;;;;5087834;28;19995;-75
2022/02/09 08:54:10;;;;;;;;;;;7.50;99.90;;;;;;5089250;28;20058;-74
2022/02/09 08:56:38;;;;;;;;;;;7.50;99.90;;;;;;5087735;28;19920;-74
2022/02/09 08:59:04;;;;;;;;;;;7.60;99.90;;;;;;5088686;28;19980;-74
2022/02/09 09:01:37;;;;;;;;;;;7.60;99.90;;;;;;5089125;28;19997;-75
2022/02/09 09:04:14;;;;;;;;;;;7.70;99.90;;;;;;5087422;28;20002;-74
2022/02/09 09:06:42;;;;;;;;;;;7.90;99.90;;;;;;5088716;28;20266;-74
2022/02/09 09:58:05;;;;;;;;;;;10.00;99.90;;;;;;5088281;28;19958;-73
2022/02/09 10:30:59;;;;;;;;;;;10.30;99.90;;;;;;5088147;28;20001;-73
2022/02/09 10:34:02;;;;;;;;;;;12.10;99.90;;;;;;5088497;28;20369;-72
2022/02/09 10:36:29;;;;;;;;;;;13.20;99.90;;;;;;5086994;28;20010;-72
2022/02/09 10:39:06;;;;;;;;;;;13.90;99.10;;;;;;5085541;28;19957;-72
2022/02/09 10:41:38;;;;;;;;;;;13.90;98.00;;;;;;5086862;28;20402;-72
2022/02/09 10:44:05;;;;;;;;;;;13.70;97.10;;;;;;5087673;28;20003;-71
2022/02/09 10:46:31;;;;;;;;;;;13.40;96.80;;;;;;5087206;28;20251;-72
2022/02/09 10:48:59;;;;;;;;;;;13.10;96.20;;;;;;5087412;28;19923;-72
2022/02/09 10:51:41;;;;;;;;;;;12.80;96.30;;;;;;5086167;28;20397;-72
2022/02/09 10:54:08;;;;;;;;;;;12.50;96.60;;;;;;5086457;28;20329;-72
2022/02/09 10:56:34;;;;;;;;;;;12.30;96.70;;;;;;5088041;28;19909;-72
2022/02/09 10:59:05;;;;;;;;;;;12.10;96.50;;;;;;5083295;28;19916;-72
2022/02/09 11:01:31;;;;;;;;;;;12.10;96.30;;;;;;5086511;28;19908;-73
2022/02/09 11:03:58;;;;;;;;;;;11.90;96.50;;;;;;5087906;28;19930;-72
2022/02/09 11:06:26;;;;;;;;;;;11.90;96.50;;;;;;5087521;28;20001;-73
2022/02/09 11:08:52;;;;;;;;;;;11.80;96.60;;;;;;5088135;28;19912;-73
2022/02/09 11:11:17;;;;;;;;;;;11.70;96.50;;;;;;5090003;28;19908;-72
2022/02/09 11:13:43;;;;;;;;;;;11.70;96.70;;;;;;5091723;28;20262;-70
2022/02/09 11:16:09;;;;;;;;;;;12.20;97.90;;;;;;5091729;28;19908;-71
2022/02/09 11:18:36;;;;;;;;;;;13.20;98.50;;;;;;5091489;28;19916;-71
2022/02/09 11:21:04;;;;;;;;;;;14.20;98.00;;;;;;5089952;28;19913;-71
2022/02/09 11:23:57;;;;;;;;;;;15.00;97.80;;;;;;5091214;28;19984;-72
2022/02/09 11:26:43;;;;;;;;;;;15.80;97.60;;;;;;5088521;28;19919;-72
2022/02/09 11:29:34;;;;;;;;;;;16.50;97.40;;;;;;5089375;28;19912;-72
2022/02/09 11:32:11;;;;;;;;;;;17.10;95.80;;;;;;5091067;28;20039;-72
2022/02/09 11:40:39;;;;;;;;;;;16.00;93.60;;;;;;5088375;28;19918;-74
2022/02/09 11:51:42;;;;;;;;;;;17.70;93.00;;;;;;5091465;28;20281;-73
2022/02/09 12:00:07;;;;;;;;;;;17.20;88.40;;;;;;5089066;28;19908;-72
2022/02/09 12:11:05;;;;;;;;;;;14.70;86.20;;;;;;5090424;28;19919;-72
2022/02/09 12:13:55;;;;;;;;;;;14.10;86.90;;;;;;5090120;28;19945;-75
2022/02/09 12:16:36;;;;;;;;;;;13.60;87.70;;;;;;5089341;28;19912;-74
2022/02/09 12:19:05;;;;;;;;;;;13.50;90.60;;;;;;5087527;28;19912;-74
2022/02/09 12:22:13;;;;;;;;;;;14.30;92.20;;;;;;5089411;28;20007;-74
2022/02/09 12:24:32;;;;;;;;;;;15.20;92.40;;;;;;5085675;28;19919;-74
2022/02/09 12:27:03;;;;;;;;;;;15.90;91.30;;;;;;5090556;28;19918;-74
2022/02/09 12:29:39;;;;;;;;;;;16.20;90.50;;;;;;5089487;28;19913;-75
2022/02/09 12:32:14;;;;;;;;;;;16.60;90.70;;;;;;5089294;28;19926;-74
2022/02/09 12:34:43;;;;;;;;;;;16.70;87.80;;;;;;5088690;28;20266;-74
2022/02/09 12:37:12;;;;;;;;;;;16.10;87.10;;;;;;5089887;28;19924;-73
2022/02/09 12:39:51;;;;;;;;;;;15.50;86.70;;;;;;5089687;28;20637;-75
2022/02/09 12:42:19;;;;;;;;;;;14.80;85.90;;;;;;5086995;28;20358;-74
2022/02/09 12:45:19;;;;;;;;;;;14.20;86.80;;;;;;5089449;28;19943;-73
2022/02/09 12:47:49;;;;;;;;;;;13.80;87.60;;;;;;5089838;28;20372;-75
2022/02/09 12:50:16;;;;;;;;;;;13.40;87.70;;;;;;5088405;28;20545;-75
2022/02/09 12:52:46;;;;;;;;;;;13.20;88.20;;;;;;5088213;28;19908;-75
2022/02/09 12:55:18;;;;;;;;;;;13.10;88.50;;;;;;5088071;28;19912;-74
2022/02/09 12:57:51;;;;;;;;;;;13.10;89.40;;;;;;5085744;28;20014;-74
2022/02/09 13:00:24;;;;;;;;;;;13.20;90.00;;;;;;5088272;28;19912;-75
2022/02/09 13:02:51;;;;;;;;;;;13.60;90.20;;;;;;5089151;28;19981;-73
2022/02/09 13:05:16;;;;;;;;;;;14.00;90.20;;;;;;5089441;28;20030;-77
2022/02/09 13:08:01;;;;;;;;;;;14.30;90.00;;;;;;5089100;28;19999;-75
2022/02/09 13:10:28;;;;;;;;;;;14.40;88.90;;;;;;5087526;28;19928;-78
2022/02/09 13:12:56;;;;;;;;;;;14.30;87.60;;;;;;5089085;28;20289;-74
2022/02/09 13:15:29;;;;;;;;;;;14.40;89.00;;;;;;5089131;28;20040;-74
2022/02/09 13:26:12;;;;;;;;;;;14.60;87.70;;;;;;5087444;28;19996;-74
2022/02/09 14:11:26;;;;;;;;;;;12.20;84.00;;;;;;5082619;28;19943;-74
2022/02/09 14:14:08;;;;;;;;;;;12.10;83.70;;;;;;5076354;28;20371;-74
2022/02/09 14:19:24;;;;;;;;;;;11.90;84.50;;;;;;5082068;28;19968;-75
2022/02/09 14:52:00;;;;;;;;;;;11.20;84.10;;;;;;5087846;28;20211;-74
2022/02/09 14:57:00;;;;;;;;;;;11.30;83.80;;;;;;5082656;28;20373;-74
2022/02/09 15:02:35;;;;;;;;;;;11.40;83.60;;;;;;5066724;28;19976;-74
2022/02/09 15:08:32;;;;;;;;;;;11.30;83.70;;;;;;5078742;28;19965;-73
2022/02/09 15:10:42;;;;;;;;;;;11.30;84.20;;;;;;5072069;28;19919;-74
2022/02/09 15:13:36;;;;;;;;;;;11.30;84.40;;;;;;5073570;28;20055;-77
2022/02/09 15:23:47;;;;;;;;;;;11.30;84.60;;;;;;5087249;28;19970;-74
2022/02/09 15:26:13;;;;;;;;;;;11.20;84.30;;;;;;5084668;28;19912;-74
2022/02/09 15:28:39;;;;;;;;;;;11.20;84.80;;;;;;5087231;28;20346;-73
2022/02/09 15:31:11;;;;;;;;;;;11.20;85.00;;;;;;5086089;28;20006;-74
2022/02/09 15:34:29;;;;;;;;;;;11.20;84.90;;;;;;5085817;28;19965;-73
2022/02/09 15:37:04;;;;;;;;;;;11.20;84.50;;;;;;5053943;28;20349;-74
2022/02/09 15:39:34;;;;;;;;;;;11.10;84.60;;;;;;5083439;28;20381;-73
2022/02/09 15:42:32;;;;;;;;;;;11.00;84.10;;;;;;5086711;28;20354;-73
2022/02/09 16:09:45;;;;;;;;;;;9.90;84.80;;;;;;5088313;28;20000;-73
2022/02/09 16:23:14;;;;;;;;;;;9.60;85.50;;;;;;5089453;28;19926;-73
2022/02/09 16:44:16;;;;;;;;;;;9.40;86.40;;;;;;5089542;28;19918;-72
2022/02/09 16:44:37;;;;;;;;;;;9.40;86.50;;;;;;5090880;28;20381;-73
2022/02/09 16:50:01;;;;;;;;;;;9.30;86.70;;;;;;5070275;28;19953;-72
2022/02/09 16:52:41;;;;;;;;;;;9.30;86.70;;;;;;5088994;28;19919;-72
2022/02/09 17:20:03;;;;;;;;;;;9.00;88.00;;;;;;5086244;28;19974;-72
2022/02/09 17:22:28;;;;;;;;;;;9.00;88.00;;;;;;5088622;28;19920;-72
2022/02/09 17:24:54;;;;;;;;;;;9.00;88.00;;;;;;5082810;28;20368;-73
2022/02/09 17:27:20;;;;;;;;;;;9.10;87.80;;;;;;5079986;28;19916;-72
2022/02/09 17:53:30;;;;;;;;;;;9.00;87.00;;;;;;5077273;28;19920;-73
2022/02/09 17:56:05;;;;;;;;;;;8.90;87.30;;;;;;5080063;28;20046;-73
2022/02/09 17:58:54;;;;;;;;;;;8.80;87.60;;;;;;5079671;28;19975;-72
2022/02/09 18:01:20;;;;;;;;;;;8.60;87.90;;;;;;5078216;28;19912;-71
2022/02/09 18:03:46;;;;;;;;;;;8.50;88.30;;;;;;5078616;28;20357;-72
2022/02/09 18:06:24;;;;;;;;;;;8.40;88.60;;;;;;5079036;28;19923;-73
2022/02/09 18:29:01;;;;;;;;;;;7.90;89.60;;;;;;5074750;28;19927;-73
2022/02/09 18:30:45;;;;;;;;;;;7.80;89.70;;;;;;5068688;28;19940;-72
2022/02/09 18:40:10;;;;;;;;;;;7.60;90.00;;;;;;5087350;28;19923;-73
2022/02/09 18:42:31;;;;;;;;;;;7.60;90.10;;;;;;5081301;28;20296;-72
2022/02/09 18:44:32;;;;;;;;;;;7.50;90.10;;;;;;5087319;28;19922;-72
2022/02/09 19:02:41;;;;;;;;;;;7.30;90.60;;;;;;5084806;28;19978;-71
2022/02/09 19:05:52;;;;;;;;;;;7.30;90.40;;;;;;5082843;28;19974;-72
2022/02/09 19:28:34;;;;;;;;;;;7.00;90.90;;;;;;5087554;28;20417;-72
2022/02/09 19:40:49;;;;;;;;;;;6.80;91.10;;;;;;5091660;28;19970;-71
2022/02/09 19:48:35;;;;;;;;;;;6.70;91.30;;;;;;5090814;28;19939;-71
2022/02/09 19:51:36;;;;;;;;;;;6.70;91.40;;;;;;5089450;28;19919;-72
2022/02/09 19:54:24;;;;;;;;;;;6.60;91.50;;;;;;5090614;28;20015;-72
2022/02/09 19:56:58;;;;;;;;;;;6.60;91.50;;;;;;5090500;28;19965;-72
2022/02/09 19:59:23;;;;;;;;;;;6.60;91.50;;;;;;5090950;28;19922;-71
2022/02/09 20:01:49;;;;;;;;;;;6.60;91.60;;;;;;5089347;28;19912;-72
2022/02/09 20:04:16;;;;;;;;;;;6.60;91.60;;;;;;5089490;28;19943;-71
2022/02/09 20:06:43;;;;;;;;;;;6.60;91.70;;;;;;5090669;28;19923;-71
2022/02/09 20:09:09;;;;;;;;;;;6.60;91.70;;;;;;5090559;28;19916;-71
2022/02/09 20:11:37;;;;;;;;;;;6.60;91.70;;;;;;5090428;28;20257;-71
2022/02/09 20:14:03;;;;;;;;;;;6.60;91.80;;;;;;5089093;28;20326;-71
2022/02/09 20:16:29;;;;;;;;;;;6.60;91.80;;;;;;5090159;28;19953;-71
2022/02/09 20:18:55;;;;;;;;;;;6.50;91.80;;;;;;5088779;28;19961;-71
2022/02/09 20:21:23;;;;;;;;;;;6.50;91.90;;;;;;5090185;28;20159;-72
2022/02/09 20:23:51;;;;;;;;;;;6.50;92.00;;;;;;5090786;28;20045;-71
2022/02/09 20:26:17;;;;;;;;;;;6.50;92.00;;;;;;5090194;28;19934;-72
2022/02/09 20:28:47;;;;;;;;;;;6.50;92.10;;;;;;5090409;28;20362;-71
2022/02/09 20:31:18;;;;;;;;;;;6.50;92.10;;;;;;5089884;28;19934;-72
2022/02/09 20:33:49;;;;;;;;;;;6.60;92.20;;;;;;5090061;28;19999;-72
2022/02/09 20:36:17;;;;;;;;;;;6.60;92.20;;;;;;5090160;28;19912;-72
2022/02/09 20:38:45;;;;;;;;;;;6.70;92.10;;;;;;5088886;28;19912;-71
2022/02/09 20:41:13;;;;;;;;;;;6.60;92.10;;;;;;5090188;28;19908;-72
2022/02/09 20:43:44;;;;;;;;;;;6.60;92.00;;;;;;5071164;28;19937;-72
2022/02/09 20:46:09;;;;;;;;;;;6.50;92.00;;;;;;5088556;28;19916;-72
2022/02/09 20:48:35;;;;;;;;;;;6.50;92.10;;;;;;5089965;28;19984;-72
2022/02/09 20:51:01;;;;;;;;;;;6.50;92.10;;;;;;5090002;28;19912;-71
2022/02/09 20:53:27;;;;;;;;;;;6.50;92.10;;;;;;5089943;28;19938;-72
2022/02/09 20:55:52;;;;;;;;;;;6.40;92.00;;;;;;5089754;28;19909;-72
2022/02/09 20:58:18;;;;;;;;;;;6.40;92.00;;;;;;5090014;28;20362;-72
2022/02/09 21:01:03;;;;;;;;;;;6.30;92.00;;;;;;5089932;28;19912;-72
2022/02/09 21:52:51;;;;;;;;;;;5.80;92.90;;;;;;5088805;28;19919;-71
2022/02/09 21:55:25;;;;;;;;;;;5.80;93.00;;;;;;5088400;28;19919;-72
2022/02/09 22:32:33;;;;;;;;;;;5.60;93.40;;;;;;5088325;28;19988;-72
2022/02/09 22:50:45;;;;;;;;;;;5.40;93.80;;;;;;5088173;28;19914;-71
2022/02/09 22:55:55;;;;;;;;;;;5.40;94.00;;;;;;5087995;28;20285;-71
2022/02/09 22:58:20;;;;;;;;;;;5.40;94.10;;;;;;5088091;28;20002;-71
2022/02/09 23:03:25;;;;;;;;;;;5.40;94.30;;;;;;5086728;28;19916;-70
2022/02/09 23:11:24;;;;;;;;;;;5.40;94.40;;;;;;5091923;28;19988;-71
2022/02/09 23:16:30;;;;;;;;;;;5.40;94.50;;;;;;5091926;28;19931;-71
2022/02/09 23:24:28;;;;;;;;;;;5.40;94.70;;;;;;5092415;28;19944;-71
